sensor_id;sensor_type;location;lat;lon;timestamp;temperature;humidity
8114;DHT22;4099;52.684;9.918;2024-01-07T00:01:25;-0.50;99.90
8114;DHT22;4099;52.684;9.918;2024-01-07T00:06:28;-0.50;99.90
8114;DHT22;4099;52.684;9.918;2024-01-07T00:11:29;-0.50;99.90
8114;DHT22;4099;52.684;9.918;2024-01-07T00:16:31;-0.50;99.90
8114;DHT22;4099;52.684;9.918;2024-01-07T00:21:34;-0.50;99.90
8114;DHT22;4099;52.684;9.918;2024-01-07T00:26:36;-0.50;99.90
8114;DHT22;4099;52.684;9.918;2024-01-07T00:31:37;-0.60;99.90
8114;DHT22;4099;52.684;9.918;2024-01-07T00:36:40;-0.70;99.90
8114;DHT22;4099;52.684;9.918;2024-01-07T00:41:43;-0.80;99.90
8114;DHT22;4099;52.684;9.918;2024-01-07T00:46:44;-0.70;99.90
8114;DHT22;4099;52.684;9.918;2024-01-07T00:51:47;-0.80;99.90
8114;DHT22;4099;52.684;9.918;2024-01-07T00:56:49;-0.80;99.90
8114;DHT22;4099;52.684;9.918;2024-01-07T01:01:51;-0.80;99.90
8114;DHT22;4099;52.684;9.918;2024-01-07T01:06:54;-0.80;99.90
8114;DHT22;4099;52.684;9.918;2024-01-07T01:11:55;-0.60;99.90
8114;DHT22;4099;52.684;9.918;2024-01-07T01:16:57;-0.60;99.90
8114;DHT22;4099;52.684;9.918;2024-01-07T01:22:00;-0.60;99.90
8114;DHT22;4099;52.684;9.918;2024-01-07T01:27:02;-0.70;99.90
8114;DHT22;4099;52.684;9.918;2024-01-07T01:32:04;-0.80;99.90
8114;DHT22;4099;52.684;9.918;2024-01-07T01:37:09;-0.90;99.90
8114;DHT22;4099;52.684;9.918;2024-01-07T01:42:11;-1.00;99.90
8114;DHT22;4099;52.684;9.918;2024-01-07T01:47:12;-0.90;99.90
8114;DHT22;4099;52.684;9.918;2024-01-07T01:52:16;-0.80;99.90
8114;DHT22;4099;52.684;9.918;2024-01-07T01:57:21;-0.90;99.90
8114;DHT22;4099;52.684;9.918;2024-01-07T02:02:24;-0.80;99.90
8114;DHT22;4099;52.684;9.918;2024-01-07T02:07:27;-1.00;99.90
8114;DHT22;4099;52.684;9.918;2024-01-07T02:12:30;-1.00;99.90
8114;DHT22;4099;52.684;9.918;2024-01-07T02:17:32;-1.10;99.90
8114;DHT22;4099;52.684;9.918;2024-01-07T02:22:35;-1.20;99.90
8114;DHT22;4099;52.684;9.918;2024-01-07T02:27:38;-1.30;99.90
8114;DHT22;4099;52.684;9.918;2024-01-07T02:32:40;-1.10;99.90
8114;DHT22;4099;52.684;9.918;2024-01-07T02:37:41;-1.10;99.90
8114;DHT22;4099;52.684;9.918;2024-01-07T02:42:44;-1.00;99.90
8114;DHT22;4099;52.684;9.918;2024-01-07T02:47:46;-1.00;99.90
8114;DHT22;4099;52.684;9.918;2024-01-07T02:52:47;-1.10;99.90
8114;DHT22;4099;52.684;9.918;2024-01-07T02:57:50;-1.10;99.90
8114;DHT22;4099;52.684;9.918;2024-01-07T03:02:52;-1.10;99.90
8114;DHT22;4099;52.684;9.918;2024-01-07T03:07:54;-1.10;99.90
8114;DHT22;4099;52.684;9.918;2024-01-07T03:12:57;-1.20;99.90
8114;DHT22;4099;52.684;9.918;2024-01-07T03:17:59;-1.20;99.90
8114;DHT22;4099;52.684;9.918;2024-01-07T03:23:01;-1.20;99.90
8114;DHT22;4099;52.684;9.918;2024-01-07T03:28:05;-1.20;99.90
8114;DHT22;4099;52.684;9.918;2024-01-07T03:33:06;-1.20;99.90
8114;DHT22;4099;52.684;9.918;2024-01-07T03:38:08;-1.20;99.90
8114;DHT22;4099;52.684;9.918;2024-01-07T03:43:11;-1.10;99.90
8114;DHT22;4099;52.684;9.918;2024-01-07T03:48:13;-1.10;99.90
8114;DHT22;4099;52.684;9.918;2024-01-07T03:53:15;-1.20;99.90
8114;DHT22;4099;52.684;9.918;2024-01-07T03:58:18;-1.30;99.90
8114;DHT22;4099;52.684;9.918;2024-01-07T04:03:19;-1.30;99.90
8114;DHT22;4099;52.684;9.918;2024-01-07T04:08:21;-1.30;99.90
8114;DHT22;4099;52.684;9.918;2024-01-07T04:13:24;-1.30;99.90
8114;DHT22;4099;52.684;9.918;2024-01-07T04:18:26;-1.50;99.90
8114;DHT22;4099;52.684;9.918;2024-01-07T04:23:27;-1.40;99.90
8114;DHT22;4099;52.684;9.918;2024-01-07T04:28:30;-1.50;99.90
8114;DHT22;4099;52.684;9.918;2024-01-07T04:33:32;-1.50;99.90
8114;DHT22;4099;52.684;9.918;2024-01-07T04:38:34;-1.60;99.90
8114;DHT22;4099;52.684;9.918;2024-01-07T04:43:38;-1.50;99.90
8114;DHT22;4099;52.684;9.918;2024-01-07T04:48:40;-1.40;99.90
8114;DHT22;4099;52.684;9.918;2024-01-07T04:53:42;-1.50;99.90
8114;DHT22;4099;52.684;9.918;2024-01-07T04:58:45;-1.70;99.90
8114;DHT22;4099;52.684;9.918;2024-01-07T05:03:47;-1.60;99.90
8114;DHT22;4099;52.684;9.918;2024-01-07T05:08:48;-1.70;99.90
8114;DHT22;4099;52.684;9.918;2024-01-07T05:13:52;-1.70;99.90
8114;DHT22;4099;52.684;9.918;2024-01-07T05:18:53;-1.80;99.90
8114;DHT22;4099;52.684;9.918;2024-01-07T05:23:55;-2.00;99.90
8114;DHT22;4099;52.684;9.918;2024-01-07T05:28:58;-2.00;99.90
8114;DHT22;4099;52.684;9.918;2024-01-07T05:34:00;-2.00;99.90
8114;DHT22;4099;52.684;9.918;2024-01-07T05:39:02;-2.20;99.90
8114;DHT22;4099;52.684;9.918;2024-01-07T05:44:07;-2.40;99.90
8114;DHT22;4099;52.684;9.918;2024-01-07T05:49:09;-2.50;99.90
8114;DHT22;4099;52.684;9.918;2024-01-07T05:54:11;-2.50;99.90
8114;DHT22;4099;52.684;9.918;2024-01-07T05:59:14;-2.50;99.90
8114;DHT22;4099;52.684;9.918;2024-01-07T06:04:16;-2.50;99.90
8114;DHT22;4099;52.684;9.918;2024-01-07T06:09:18;-2.60;99.90
8114;DHT22;4099;52.684;9.918;2024-01-07T06:14:21;-2.60;99.90
8114;DHT22;4099;52.684;9.918;2024-01-07T06:19:22;-2.40;99.90
8114;DHT22;4099;52.684;9.918;2024-01-07T06:24:24;-2.40;99.90
8114;DHT22;4099;52.684;9.918;2024-01-07T06:29:27;-2.50;99.90
8114;DHT22;4099;52.684;9.918;2024-01-07T06:34:29;-2.30;99.90
8114;DHT22;4099;52.684;9.918;2024-01-07T06:39:31;-2.40;99.90
8114;DHT22;4099;52.684;9.918;2024-01-07T06:44:36;-2.50;99.90
8114;DHT22;4099;52.684;9.918;2024-01-07T06:49:37;-2.50;99.90
8114;DHT22;4099;52.684;9.918;2024-01-07T06:54:40;-2.50;99.90
8114;DHT22;4099;52.684;9.918;2024-01-07T06:59:43;-2.40;99.90
8114;DHT22;4099;52.684;9.918;2024-01-07T07:04:44;-2.30;99.90
8114;DHT22;4099;52.684;9.918;2024-01-07T07:09:46;-2.30;99.90
8114;DHT22;4099;52.684;9.918;2024-01-07T07:14:49;-2.00;99.90
8114;DHT22;4099;52.684;9.918;2024-01-07T07:19:51;-2.10;99.90
8114;DHT22;4099;52.684;9.918;2024-01-07T07:24:52;-2.20;99.90
8114;DHT22;4099;52.684;9.918;2024-01-07T07:29:56;-2.10;99.90
8114;DHT22;4099;52.684;9.918;2024-01-07T07:34:57;-2.20;99.90
8114;DHT22;4099;52.684;9.918;2024-01-07T07:39:59;-2.10;99.90
8114;DHT22;4099;52.684;9.918;2024-01-07T07:45:02;-2.00;99.90
8114;DHT22;4099;52.684;9.918;2024-01-07T07:50:06;-1.90;99.90
8114;DHT22;4099;52.684;9.918;2024-01-07T07:55:08;-1.90;99.90
8114;DHT22;4099;52.684;9.918;2024-01-07T08:00:12;-1.90;99.90
8114;DHT22;4099;52.684;9.918;2024-01-07T08:05:14;-2.00;99.90
8114;DHT22;4099;52.684;9.918;2024-01-07T08:10:16;-2.00;99.90
8114;DHT22;4099;52.684;9.918;2024-01-07T08:15:19;-1.80;99.90
8114;DHT22;4099;52.684;9.918;2024-01-07T08:20:20;-1.80;99.90
8114;DHT22;4099;52.684;9.918;2024-01-07T08:25:22;-1.70;99.90
8114;DHT22;4099;52.684;9.918;2024-01-07T08:30:25;-1.60;99.90
8114;DHT22;4099;52.684;9.918;2024-01-07T08:35:27;-1.40;99.90
8114;DHT22;4099;52.684;9.918;2024-01-07T08:40:29;-1.40;99.90
8114;DHT22;4099;52.684;9.918;2024-01-07T08:45:32;-1.10;99.90
8114;DHT22;4099;52.684;9.918;2024-01-07T08:50:33;-1.10;99.90
8114;DHT22;4099;52.684;9.918;2024-01-07T08:55:35;-1.10;99.90
8114;DHT22;4099;52.684;9.918;2024-01-07T09:00:38;-1.20;99.90
8114;DHT22;4099;52.684;9.918;2024-01-07T09:05:40;-1.20;99.90
8114;DHT22;4099;52.684;9.918;2024-01-07T09:10:42;-1.30;99.90
8114;DHT22;4099;52.684;9.918;2024-01-07T09:15:45;-1.40;99.90
8114;DHT22;4099;52.684;9.918;2024-01-07T09:20:47;-1.40;99.90
8114;DHT22;4099;52.684;9.918;2024-01-07T09:25:49;-1.20;99.90
8114;DHT22;4099;52.684;9.918;2024-01-07T09:30:52;-1.10;99.90
8114;DHT22;4099;52.684;9.918;2024-01-07T09:35:54;-0.80;99.90
8114;DHT22;4099;52.684;9.918;2024-01-07T09:40:56;-0.70;99.90
8114;DHT22;4099;52.684;9.918;2024-01-07T09:45:59;-0.60;99.90
8114;DHT22;4099;52.684;9.918;2024-01-07T09:51:01;-0.70;99.90
8114;DHT22;4099;52.684;9.918;2024-01-07T09:56:09;-0.80;99.90
8114;DHT22;4099;52.684;9.918;2024-01-07T10:01:14;-0.80;99.90
8114;DHT22;4099;52.684;9.918;2024-01-07T10:06:18;-0.80;99.90
8114;DHT22;4099;52.684;9.918;2024-01-07T10:11:21;-0.60;99.90
8114;DHT22;4099;52.684;9.918;2024-01-07T10:16:24;-0.60;99.90
8114;DHT22;4099;52.684;9.918;2024-01-07T10:21:26;-0.60;99.90
8114;DHT22;4099;52.684;9.918;2024-01-07T10:26:28;-0.60;99.90
8114;DHT22;4099;52.684;9.918;2024-01-07T10:31:31;-0.50;99.90
8114;DHT22;4099;52.684;9.918;2024-01-07T10:36:33;-0.20;99.90
8114;DHT22;4099;52.684;9.918;2024-01-07T10:41:37;0.00;99.90
8114;DHT22;4099;52.684;9.918;2024-01-07T10:46:41;0.10;99.90
8114;DHT22;4099;52.684;9.918;2024-01-07T10:51:46;0.10;99.90
8114;DHT22;4099;52.684;9.918;2024-01-07T10:56:57;0.10;99.90
8114;DHT22;4099;52.684;9.918;2024-01-07T11:02:01;0.30;99.90
8114;DHT22;4099;52.684;9.918;2024-01-07T11:07:12;0.40;99.90
8114;DHT22;4099;52.684;9.918;2024-01-07T11:12:16;0.40;99.90
8114;DHT22;4099;52.684;9.918;2024-01-07T11:17:41;0.40;99.90
8114;DHT22;4099;52.684;9.918;2024-01-07T11:22:46;0.50;99.90
8114;DHT22;4099;52.684;9.918;2024-01-07T11:27:48;0.40;99.90
8114;DHT22;4099;52.684;9.918;2024-01-07T11:32:57;0.40;99.90
8114;DHT22;4099;52.684;9.918;2024-01-07T11:37:59;0.70;99.90
8114;DHT22;4099;52.684;9.918;2024-01-07T11:43:01;0.70;99.90
8114;DHT22;4099;52.684;9.918;2024-01-07T11:48:06;0.80;99.90
8114;DHT22;4099;52.684;9.918;2024-01-07T11:53:07;0.70;99.90
8114;DHT22;4099;52.684;9.918;2024-01-07T11:58:10;0.40;99.90
8114;DHT22;4099;52.684;9.918;2024-01-07T12:03:13;0.40;99.90
8114;DHT22;4099;52.684;9.918;2024-01-07T12:08:15;0.50;99.90
8114;DHT22;4099;52.684;9.918;2024-01-07T12:13:17;0.40;99.90
8114;DHT22;4099;52.684;9.918;2024-01-07T12:18:21;0.40;99.90
8114;DHT22;4099;52.684;9.918;2024-01-07T12:23:25;0.40;99.90
8114;DHT22;4099;52.684;9.918;2024-01-07T12:28:27;0.30;99.90
8114;DHT22;4099;52.684;9.918;2024-01-07T12:33:31;0.50;99.90
8114;DHT22;4099;52.684;9.918;2024-01-07T12:38:36;0.70;99.90
8114;DHT22;4099;52.684;9.918;2024-01-07T12:43:38;0.90;99.90
8114;DHT22;4099;52.684;9.918;2024-01-07T12:48:41;0.60;99.90
8114;DHT22;4099;52.684;9.918;2024-01-07T12:53:43;0.70;99.90
8114;DHT22;4099;52.684;9.918;2024-01-07T12:58:45;0.60;99.90
8114;DHT22;4099;52.684;9.918;2024-01-07T13:03:48;0.70;99.90
8114;DHT22;4099;52.684;9.918;2024-01-07T13:08:50;0.70;99.90
8114;DHT22;4099;52.684;9.918;2024-01-07T13:13:52;0.60;99.90
8114;DHT22;4099;52.684;9.918;2024-01-07T13:18:55;0.40;99.90
8114;DHT22;4099;52.684;9.918;2024-01-07T13:23:57;0.30;99.90
8114;DHT22;4099;52.684;9.918;2024-01-07T13:29:00;0.30;99.90
8114;DHT22;4099;52.684;9.918;2024-01-07T13:34:03;0.10;99.90
8114;DHT22;4099;52.684;9.918;2024-01-07T13:39:05;0.20;99.90
8114;DHT22;4099;52.684;9.918;2024-01-07T13:44:08;0.40;99.90
8114;DHT22;4099;52.684;9.918;2024-01-07T13:49:19;0.60;99.90
8114;DHT22;4099;52.684;9.918;2024-01-07T13:54:20;0.60;99.90
8114;DHT22;4099;52.684;9.918;2024-01-07T13:59:22;0.70;99.90
8114;DHT22;4099;52.684;9.918;2024-01-07T14:04:25;0.60;99.90
8114;DHT22;4099;52.684;9.918;2024-01-07T14:09:27;0.20;99.90
8114;DHT22;4099;52.684;9.918;2024-01-07T14:14:31;0.00;99.90
8114;DHT22;4099;52.684;9.918;2024-01-07T14:19:34;-0.20;99.90
8114;DHT22;4099;52.684;9.918;2024-01-07T14:24:36;-0.20;99.90
8114;DHT22;4099;52.684;9.918;2024-01-07T14:29:38;-0.20;99.90
8114;DHT22;4099;52.684;9.918;2024-01-07T14:34:41;-0.10;99.90
8114;DHT22;4099;52.684;9.918;2024-01-07T14:39:44;-0.60;99.90
8114;DHT22;4099;52.684;9.918;2024-01-07T14:44:46;-0.70;99.90
8114;DHT22;4099;52.684;9.918;2024-01-07T14:49:49;-0.70;99.90
8114;DHT22;4099;52.684;9.918;2024-01-07T14:54:51;-0.90;99.90
8114;DHT22;4099;52.684;9.918;2024-01-07T14:59:52;-1.00;99.90
8114;DHT22;4099;52.684;9.918;2024-01-07T15:04:55;-1.10;99.90
8114;DHT22;4099;52.684;9.918;2024-01-07T15:09:58;-1.20;99.90
8114;DHT22;4099;52.684;9.918;2024-01-07T15:15:00;-1.10;99.90
8114;DHT22;4099;52.684;9.918;2024-01-07T15:20:06;-1.10;99.90
8114;DHT22;4099;52.684;9.918;2024-01-07T15:25:09;-1.10;99.90
8114;DHT22;4099;52.684;9.918;2024-01-07T15:30:11;-1.10;99.90
8114;DHT22;4099;52.684;9.918;2024-01-07T15:35:14;-1.20;99.90
8114;DHT22;4099;52.684;9.918;2024-01-07T15:40:16;-1.20;99.90
8114;DHT22;4099;52.684;9.918;2024-01-07T15:45:18;-1.10;99.90
8114;DHT22;4099;52.684;9.918;2024-01-07T15:50:21;-1.10;99.90
8114;DHT22;4099;52.684;9.918;2024-01-07T15:55:23;-1.20;99.90
8114;DHT22;4099;52.684;9.918;2024-01-07T16:00:25;-1.20;99.90
8114;DHT22;4099;52.684;9.918;2024-01-07T16:05:28;-1.30;99.90
8114;DHT22;4099;52.684;9.918;2024-01-07T16:10:30;-1.20;99.90
8114;DHT22;4099;52.684;9.918;2024-01-07T16:15:32;-1.30;99.90
8114;DHT22;4099;52.684;9.918;2024-01-07T16:20:35;-1.30;99.90
8114;DHT22;4099;52.684;9.918;2024-01-07T16:25:37;-1.20;99.90
8114;DHT22;4099;52.684;9.918;2024-01-07T16:30:39;-1.30;99.90
8114;DHT22;4099;52.684;9.918;2024-01-07T16:35:43;-1.30;99.90
8114;DHT22;4099;52.684;9.918;2024-01-07T16:40:45;-1.40;99.90
8114;DHT22;4099;52.684;9.918;2024-01-07T16:45:47;-1.50;99.90
8114;DHT22;4099;52.684;9.918;2024-01-07T16:50:50;-1.60;99.90
8114;DHT22;4099;52.684;9.918;2024-01-07T16:55:53;-1.70;99.90
8114;DHT22;4099;52.684;9.918;2024-01-07T17:00:55;-1.80;99.90
8114;DHT22;4099;52.684;9.918;2024-01-07T17:06:01;-1.80;99.90
8114;DHT22;4099;52.684;9.918;2024-01-07T17:11:03;-1.80;99.90
8114;DHT22;4099;52.684;9.918;2024-01-07T17:16:06;-1.90;99.90
8114;DHT22;4099;52.684;9.918;2024-01-07T17:21:09;-2.00;99.90
8114;DHT22;4099;52.684;9.918;2024-01-07T17:26:11;-2.10;99.90
8114;DHT22;4099;52.684;9.918;2024-01-07T17:31:12;-2.10;99.90
8114;DHT22;4099;52.684;9.918;2024-01-07T17:36:16;-2.20;99.90
8114;DHT22;4099;52.684;9.918;2024-01-07T17:41:17;-2.20;99.90
8114;DHT22;4099;52.684;9.918;2024-01-07T17:46:19;-2.20;99.90
8114;DHT22;4099;52.684;9.918;2024-01-07T17:51:22;-2.30;99.90
8114;DHT22;4099;52.684;9.918;2024-01-07T17:56:24;-2.40;99.90
8114;DHT22;4099;52.684;9.918;2024-01-07T18:01:26;-2.40;99.90
8114;DHT22;4099;52.684;9.918;2024-01-07T18:06:30;-2.40;99.90
8114;DHT22;4099;52.684;9.918;2024-01-07T18:11:32;-2.40;99.90
8114;DHT22;4099;52.684;9.918;2024-01-07T18:16:34;-2.40;99.90
8114;DHT22;4099;52.684;9.918;2024-01-07T18:21:39;-2.50;99.90
8114;DHT22;4099;52.684;9.918;2024-01-07T18:26:40;-2.50;99.90
8114;DHT22;4099;52.684;9.918;2024-01-07T18:31:42;-2.50;99.90
8114;DHT22;4099;52.684;9.918;2024-01-07T18:36:46;-2.60;99.90
8114;DHT22;4099;52.684;9.918;2024-01-07T18:41:50;-2.60;99.90
8114;DHT22;4099;52.684;9.918;2024-01-07T18:46:52;-2.60;99.90
8114;DHT22;4099;52.684;9.918;2024-01-07T18:51:55;-2.50;99.90
8114;DHT22;4099;52.684;9.918;2024-01-07T18:56:57;-2.70;99.90
8114;DHT22;4099;52.684;9.918;2024-01-07T19:02:01;-2.90;99.90
8114;DHT22;4099;52.684;9.918;2024-01-07T19:07:05;-2.90;99.90
8114;DHT22;4099;52.684;9.918;2024-01-07T19:12:09;-3.00;99.90
8114;DHT22;4099;52.684;9.918;2024-01-07T19:17:14;-3.00;99.90
8114;DHT22;4099;52.684;9.918;2024-01-07T19:22:17;-3.00;99.90
8114;DHT22;4099;52.684;9.918;2024-01-07T19:27:19;-3.10;99.90
8114;DHT22;4099;52.684;9.918;2024-01-07T19:32:23;-3.20;99.90
8114;DHT22;4099;52.684;9.918;2024-01-07T19:37:26;-3.20;99.90
8114;DHT22;4099;52.684;9.918;2024-01-07T19:42:28;-3.30;99.90
8114;DHT22;4099;52.684;9.918;2024-01-07T19:47:30;-3.30;99.90
8114;DHT22;4099;52.684;9.918;2024-01-07T19:52:33;-3.30;99.90
8114;DHT22;4099;52.684;9.918;2024-01-07T19:57:35;-3.20;99.90
8114;DHT22;4099;52.684;9.918;2024-01-07T20:02:37;-3.30;99.90
8114;DHT22;4099;52.684;9.918;2024-01-07T20:07:40;-3.10;99.90
8114;DHT22;4099;52.684;9.918;2024-01-07T20:12:43;-3.00;99.90
8114;DHT22;4099;52.684;9.918;2024-01-07T20:17:44;-2.90;99.90
8114;DHT22;4099;52.684;9.918;2024-01-07T20:22:50;-2.80;99.90
8114;DHT22;4099;52.684;9.918;2024-01-07T20:27:52;-2.90;99.90
8114;DHT22;4099;52.684;9.918;2024-01-07T20:32:54;-2.90;99.90
8114;DHT22;4099;52.684;9.918;2024-01-07T20:37:58;-2.80;99.90
8114;DHT22;4099;52.684;9.918;2024-01-07T20:42:59;-2.80;99.90
8114;DHT22;4099;52.684;9.918;2024-01-07T20:48:01;-2.80;99.90
8114;DHT22;4099;52.684;9.918;2024-01-07T20:53:07;-2.80;99.90
8114;DHT22;4099;52.684;9.918;2024-01-07T20:58:09;-2.80;99.90
8114;DHT22;4099;52.684;9.918;2024-01-07T21:03:12;-2.70;99.90
8114;DHT22;4099;52.684;9.918;2024-01-07T21:08:15;-2.70;99.90
8114;DHT22;4099;52.684;9.918;2024-01-07T21:13:17;-2.70;99.90
8114;DHT22;4099;52.684;9.918;2024-01-07T21:18:19;-2.60;99.90
8114;DHT22;4099;52.684;9.918;2024-01-07T21:23:22;-2.70;99.90
8114;DHT22;4099;52.684;9.918;2024-01-07T21:28:24;-2.60;99.90
8114;DHT22;4099;52.684;9.918;2024-01-07T21:33:26;-2.60;99.90
8114;DHT22;4099;52.684;9.918;2024-01-07T21:38:29;-2.60;99.90
8114;DHT22;4099;52.684;9.918;2024-01-07T21:43:31;-2.60;99.90
8114;DHT22;4099;52.684;9.918;2024-01-07T21:48:34;-2.70;99.90
8114;DHT22;4099;52.684;9.918;2024-01-07T21:53:37;-2.70;99.90
8114;DHT22;4099;52.684;9.918;2024-01-07T21:58:39;-2.70;99.90
8114;DHT22;4099;52.684;9.918;2024-01-07T22:03:41;-2.60;99.90
8114;DHT22;4099;52.684;9.918;2024-01-07T22:08:47;-2.60;99.90
8114;DHT22;4099;52.684;9.918;2024-01-07T22:13:49;-2.60;99.90
8114;DHT22;4099;52.684;9.918;2024-01-07T22:18:51;-2.60;99.90
8114;DHT22;4099;52.684;9.918;2024-01-07T22:23:54;-2.60;99.90
8114;DHT22;4099;52.684;9.918;2024-01-07T22:28:57;-2.60;99.90
8114;DHT22;4099;52.684;9.918;2024-01-07T22:33:59;-2.60;99.90
8114;DHT22;4099;52.684;9.918;2024-01-07T22:39:07;-2.60;99.90
8114;DHT22;4099;52.684;9.918;2024-01-07T22:44:09;-2.50;99.90
8114;DHT22;4099;52.684;9.918;2024-01-07T22:49:12;-2.50;99.90
8114;DHT22;4099;52.684;9.918;2024-01-07T22:54:15;-2.40;99.90
8114;DHT22;4099;52.684;9.918;2024-01-07T22:59:18;-2.50;99.90
8114;DHT22;4099;52.684;9.918;2024-01-07T23:04:20;-2.50;99.90
8114;DHT22;4099;52.684;9.918;2024-01-07T23:09:23;-2.60;99.90
8114;DHT22;4099;52.684;9.918;2024-01-07T23:14:25;-2.60;99.90
8114;DHT22;4099;52.684;9.918;2024-01-07T23:19:26;-2.60;99.90
8114;DHT22;4099;52.684;9.918;2024-01-07T23:24:29;-2.60;99.90
8114;DHT22;4099;52.684;9.918;2024-01-07T23:29:31;-2.50;99.90
8114;DHT22;4099;52.684;9.918;2024-01-07T23:34:34;-2.50;99.90
8114;DHT22;4099;52.684;9.918;2024-01-07T23:39:39;-2.50;99.90
8114;DHT22;4099;52.684;9.918;2024-01-07T23:44:41;-2.40;99.90
8114;DHT22;4099;52.684;9.918;2024-01-07T23:49:43;-2.50;99.90
8114;DHT22;4099;52.684;9.918;2024-01-07T23:54:46;-2.50;99.90
8114;DHT22;4099;52.684;9.918;2024-01-07T23:59:48;-2.50;99.90
